createdAt,value
2022-09-16T00:00:35.245Z,99.90
2022-09-16T00:01:38.209Z,99.90
2022-09-16T00:02:40.397Z,99.90
2022-09-16T00:03:44.044Z,99.90
2022-09-16T00:04:46.143Z,99.90
2022-09-16T00:05:50.873Z,99.90
2022-09-16T00:06:52.806Z,99.90
2022-09-16T00:07:56.561Z,99.90
2022-09-16T00:09:01.179Z,99.90
2022-09-16T00:10:04.859Z,99.90
2022-09-16T00:11:06.805Z,99.90
2022-09-16T00:12:09.797Z,99.90
2022-09-16T00:13:12.639Z,99.90
2022-09-16T00:14:16.959Z,99.90
2022-09-16T00:15:19.433Z,99.90
2022-09-16T00:16:24.693Z,99.90
2022-09-16T00:17:26.635Z,99.90
2022-09-16T00:18:29.649Z,99.90
2022-09-16T00:19:31.748Z,99.90
2022-09-16T00:20:34.661Z,99.90
2022-09-16T00:21:37.809Z,99.90
2022-09-16T00:22:40.783Z,99.90
2022-09-16T00:23:42.795Z,99.90
2022-09-16T00:24:45.701Z,99.90
2022-09-16T00:25:52.511Z,99.90
2022-09-16T00:26:55.408Z,99.90
2022-09-16T00:27:57.365Z,99.90
2022-09-16T00:29:00.266Z,99.90
2022-09-16T00:30:04.641Z,99.90
2022-09-16T00:31:07.786Z,99.90
2022-09-16T00:32:09.853Z,99.90
2022-09-16T00:33:12.693Z,99.90
2022-09-16T00:34:14.640Z,99.90
2022-09-16T00:35:18.234Z,99.90
2022-09-16T00:36:20.491Z,99.90
2022-09-16T00:37:23.509Z,99.90
2022-09-16T00:38:25.793Z,99.90
2022-09-16T00:39:28.670Z,99.90
2022-09-16T00:40:31.029Z,99.90
2022-09-16T00:41:34.076Z,99.90
2022-09-16T00:42:40.083Z,99.90
2022-09-16T00:43:51.678Z,99.90
2022-09-16T00:44:57.557Z,99.90
2022-09-16T00:46:06.445Z,99.90
2022-09-16T00:47:08.511Z,99.90
2022-09-16T00:48:16.536Z,99.90
2022-09-16T00:49:21.969Z,99.90
2022-09-16T00:50:39.231Z,99.90
2022-09-16T00:51:42.615Z,99.90
2022-09-16T00:52:45.917Z,99.90
2022-09-16T00:53:56.848Z,99.90
2022-09-16T00:55:02.454Z,99.90
2022-09-16T00:56:07.361Z,99.90
2022-09-16T00:57:12.143Z,99.90
2022-09-16T00:58:18.607Z,99.90
2022-09-16T00:59:26.481Z,99.90
2022-09-16T01:00:28.987Z,99.90
2022-09-16T01:01:34.199Z,99.90
2022-09-16T01:02:36.216Z,99.90
2022-09-16T01:03:45.760Z,99.90
2022-09-16T01:04:51.307Z,99.90
2022-09-16T01:05:54.441Z,99.90
2022-09-16T01:06:57.558Z,99.90
2022-09-16T01:08:01.026Z,99.90
2022-09-16T01:09:04.068Z,99.90
2022-09-16T01:10:08.090Z,99.90
2022-09-16T01:11:10.186Z,99.90
2022-09-16T01:12:13.114Z,99.90
2022-09-16T01:13:16.229Z,99.90
2022-09-16T01:14:49.407Z,99.90
2022-09-16T01:16:00.156Z,99.90
2022-09-16T01:17:11.034Z,99.90
2022-09-16T01:18:22.698Z,99.90
2022-09-16T01:19:38.236Z,99.90
2022-09-16T01:21:12.376Z,99.90
2022-09-16T01:22:27.261Z,99.90
2022-09-16T01:23:52.005Z,99.90
2022-09-16T01:25:01.157Z,99.90
2022-09-16T01:26:20.849Z,99.90
2022-09-16T01:27:56.492Z,99.90
2022-09-16T01:29:24.519Z,99.90
2022-09-16T01:30:52.878Z,99.90
2022-09-16T01:32:04.422Z,99.90
2022-09-16T01:33:11.346Z,99.90
2022-09-16T01:34:22.263Z,99.90
2022-09-16T01:35:36.464Z,99.90
2022-09-16T01:36:47.381Z,99.90
2022-09-16T01:38:00.287Z,99.90
2022-09-16T01:39:14.106Z,99.90
2022-09-16T01:40:23.752Z,99.90
2022-09-16T01:41:34.432Z,99.90
2022-09-16T01:42:44.198Z,99.90
2022-09-16T01:43:55.862Z,99.90
2022-09-16T01:45:06.898Z,99.90
2022-09-16T01:46:18.920Z,99.90
2022-09-16T01:47:28.480Z,99.90
2022-09-16T01:48:37.554Z,99.90
2022-09-16T01:49:47.939Z,99.90
2022-09-16T01:50:57.172Z,99.90
2022-09-16T01:52:09.746Z,99.90
2022-09-16T01:53:16.831Z,99.90
2022-09-16T01:54:24.976Z,99.90
2022-09-16T01:55:32.790Z,99.90
2022-09-16T01:56:43.197Z,99.90
2022-09-16T01:57:51.211Z,99.90
2022-09-16T01:58:58.843Z,99.90
2022-09-16T02:00:04.704Z,99.90
2022-09-16T02:01:13.399Z,99.90
2022-09-16T02:02:22.064Z,99.90
2022-09-16T02:03:27.898Z,99.90
2022-09-16T02:04:34.619Z,99.90
2022-09-16T02:05:42.781Z,99.90
2022-09-16T02:06:46.485Z,99.90
2022-09-16T02:07:53.558Z,99.90
2022-09-16T02:08:59.124Z,99.90
2022-09-16T02:10:09.675Z,99.90
2022-09-16T02:11:15.909Z,99.90
2022-09-16T02:12:23.637Z,99.90
2022-09-16T02:13:31.840Z,99.90
2022-09-16T02:14:38.800Z,99.90
2022-09-16T02:15:45.201Z,99.90
2022-09-16T02:16:54.671Z,99.90
2022-09-16T02:18:02.852Z,99.90
2022-09-16T02:19:11.625Z,99.90
2022-09-16T02:20:18.772Z,99.90
2022-09-16T02:21:26.595Z,99.90
2022-09-16T02:22:34.635Z,99.90
2022-09-16T02:23:41.489Z,99.90
2022-09-16T02:24:46.969Z,99.90
2022-09-16T02:25:51.146Z,99.90
2022-09-16T02:26:56.502Z,99.90
2022-09-16T02:28:03.559Z,99.90
2022-09-16T02:29:10.807Z,99.90
2022-09-16T02:30:17.589Z,99.90
2022-09-16T02:31:23.699Z,99.90
2022-09-16T02:32:29.642Z,99.90
2022-09-16T02:33:36.809Z,99.90
2022-09-16T02:34:42.364Z,99.90
2022-09-16T02:35:47.646Z,99.90
2022-09-16T02:36:56.530Z,99.90
2022-09-16T02:38:02.278Z,99.90
2022-09-16T02:39:08.645Z,99.90
2022-09-16T02:40:15.981Z,99.90
2022-09-16T02:41:18.927Z,99.90
2022-09-16T02:42:21.141Z,99.90
2022-09-16T02:43:25.291Z,99.90
2022-09-16T02:44:27.614Z,99.90
2022-09-16T02:45:55.181Z,99.90
2022-09-16T02:47:01.339Z,99.90
2022-09-16T02:48:14.153Z,99.90
2022-09-16T02:49:23.781Z,99.90
2022-09-16T02:50:30.814Z,99.90
2022-09-16T02:51:41.165Z,99.90
2022-09-16T02:52:49.245Z,99.90
2022-09-16T02:53:56.838Z,99.90
2022-09-16T02:55:06.907Z,99.90
2022-09-16T02:56:15.551Z,99.90
2022-09-16T02:57:18.755Z,99.90
2022-09-16T02:58:21.318Z,99.90
2022-09-16T02:59:25.313Z,99.90
2022-09-16T03:00:29.651Z,99.90
2022-09-16T03:01:37.280Z,99.90
2022-09-16T03:02:42.212Z,99.90
2022-09-16T03:03:46.868Z,99.90
2022-09-16T03:04:49.539Z,99.90
2022-09-16T03:06:18.322Z,99.90
2022-09-16T03:07:21.341Z,99.90
2022-09-16T03:08:23.350Z,99.90
2022-09-16T03:09:29.741Z,99.90
2022-09-16T03:10:39.757Z,99.90
2022-09-16T03:11:58.990Z,99.90
2022-09-16T03:13:08.652Z,99.90
2022-09-16T03:14:31.467Z,99.90
2022-09-16T03:15:50.161Z,99.90
2022-09-16T03:17:00.716Z,99.90
2022-09-16T03:18:22.944Z,99.90
2022-09-16T03:20:05.573Z,99.90
2022-09-16T03:21:13.393Z,99.90
2022-09-16T03:22:27.928Z,99.90
2022-09-16T03:23:44.987Z,99.90
2022-09-16T03:24:55.391Z,99.90
2022-09-16T03:26:01.074Z,99.90
2022-09-16T03:27:09.903Z,99.90
2022-09-16T03:28:16.936Z,99.90
2022-09-16T03:29:25.903Z,99.90
2022-09-16T03:30:32.393Z,99.90
2022-09-16T03:31:41.279Z,99.90
2022-09-16T03:32:48.631Z,99.90
2022-09-16T03:34:00.665Z,99.90
2022-09-16T03:35:09.536Z,99.90
2022-09-16T03:36:17.063Z,99.90
2022-09-16T03:37:21.281Z,99.90
2022-09-16T03:38:24.937Z,99.90
2022-09-16T03:39:26.957Z,99.90
2022-09-16T03:40:31.194Z,99.90
2022-09-16T03:41:34.776Z,99.90
2022-09-16T03:42:39.846Z,99.90
2022-09-16T03:43:53.162Z,99.90
2022-09-16T03:44:56.162Z,99.90
2022-09-16T03:45:58.211Z,99.90
2022-09-16T03:47:01.211Z,99.90
2022-09-16T03:48:03.451Z,99.90
2022-09-16T03:49:06.361Z,99.90
2022-09-16T03:50:10.322Z,99.90
2022-09-16T03:51:13.463Z,99.90
2022-09-16T03:52:18.518Z,99.90
2022-09-16T03:53:21.380Z,99.90
2022-09-16T03:54:23.739Z,99.90
2022-09-16T03:55:29.121Z,99.90
2022-09-16T03:56:31.179Z,99.90
2022-09-16T03:57:34.312Z,99.90
2022-09-16T03:58:36.287Z,99.90
2022-09-16T03:59:39.450Z,99.90
2022-09-16T04:00:41.574Z,99.90
2022-09-16T04:01:45.392Z,99.90
2022-09-16T04:02:47.442Z,99.90
2022-09-16T04:03:52.289Z,99.90
2022-09-16T04:04:54.334Z,99.90
2022-09-16T04:05:58.883Z,99.90
2022-09-16T04:07:00.906Z,99.90
2022-09-16T04:08:04.102Z,99.90
2022-09-16T04:09:08.096Z,99.90
2022-09-16T04:10:12.350Z,99.90
2022-09-16T04:11:14.448Z,99.90
2022-09-16T04:12:17.356Z,99.90
2022-09-16T04:13:19.314Z,99.90
2022-09-16T04:14:22.172Z,99.90
2022-09-16T04:15:24.199Z,99.90
2022-09-16T04:16:27.572Z,99.90
2022-09-16T04:17:31.899Z,99.90
2022-09-16T04:18:36.260Z,99.90
2022-09-16T04:19:38.402Z,99.90
2022-09-16T04:20:42.176Z,99.90
2022-09-16T04:21:46.568Z,99.90
2022-09-16T04:22:48.583Z,99.90
2022-09-16T04:23:51.453Z,99.90
2022-09-16T04:24:53.551Z,99.90
2022-09-16T04:25:56.924Z,99.90
2022-09-16T04:26:58.902Z,99.90
2022-09-16T04:28:02.184Z,99.90
2022-09-16T04:29:04.166Z,99.90
2022-09-16T04:30:08.017Z,99.90
2022-09-16T04:31:12.059Z,99.90
2022-09-16T04:32:15.099Z,99.90
2022-09-16T04:33:17.173Z,99.90
2022-09-16T04:34:20.258Z,99.90
2022-09-16T04:35:22.975Z,99.90
2022-09-16T04:36:26.102Z,99.90
2022-09-16T04:37:31.535Z,99.90
2022-09-16T04:38:34.763Z,99.90
2022-09-16T04:39:36.700Z,99.90
2022-09-16T04:40:40.031Z,99.90
2022-09-16T04:41:43.057Z,99.90
2022-09-16T04:42:49.363Z,99.90
2022-09-16T04:43:56.012Z,99.90
2022-09-16T04:44:58.068Z,99.90
2022-09-16T04:46:01.248Z,99.90
2022-09-16T04:47:03.331Z,99.90
2022-09-16T04:48:06.505Z,99.90
2022-09-16T04:49:08.498Z,99.90
2022-09-16T04:50:12.071Z,99.90
2022-09-16T04:51:15.019Z,99.90
2022-09-16T04:52:17.961Z,99.90
2022-09-16T04:53:21.998Z,99.90
2022-09-16T04:54:24.947Z,99.90
2022-09-16T04:55:26.845Z,99.90
2022-09-16T04:56:31.609Z,99.90
2022-09-16T04:57:33.692Z,99.90
2022-09-16T04:58:37.230Z,99.90
2022-09-16T04:59:39.284Z,99.90
2022-09-16T05:00:42.285Z,99.90
2022-09-16T05:01:45.854Z,99.90
2022-09-16T05:02:49.792Z,99.90
2022-09-16T05:03:53.698Z,99.90
2022-09-16T05:04:56.633Z,99.90
2022-09-16T05:06:05.014Z,99.90
2022-09-16T05:07:08.142Z,99.90
2022-09-16T05:08:10.119Z,99.90
2022-09-16T05:09:14.608Z,99.90
2022-09-16T05:10:16.786Z,99.90
2022-09-16T05:11:22.548Z,99.90
2022-09-16T05:12:24.525Z,99.90
2022-09-16T05:13:27.610Z,99.90
2022-09-16T05:14:30.881Z,99.90
2022-09-16T05:15:34.320Z,99.90
2022-09-16T05:16:37.353Z,99.90
2022-09-16T05:17:50.845Z,99.90
2022-09-16T05:18:56.513Z,99.90
2022-09-16T05:19:58.627Z,99.90
2022-09-16T05:21:02.647Z,99.90
2022-09-16T05:22:07.218Z,99.90
2022-09-16T05:23:10.666Z,99.90
2022-09-16T05:24:14.969Z,99.90
2022-09-16T05:25:18.371Z,99.90
2022-09-16T05:26:22.936Z,99.90
2022-09-16T05:27:27.988Z,99.90
2022-09-16T05:28:30.193Z,99.90
2022-09-16T05:29:33.402Z,99.90
2022-09-16T05:30:35.424Z,99.90
2022-09-16T05:31:39.825Z,99.90
2022-09-16T05:32:42.956Z,99.90
2022-09-16T05:33:47.112Z,99.90
2022-09-16T05:34:50.645Z,99.90
2022-09-16T05:35:52.618Z,99.90
2022-09-16T05:36:56.747Z,99.90
2022-09-16T05:37:58.810Z,99.90
2022-09-16T05:40:29.123Z,99.90
2022-09-16T05:41:32.290Z,99.90
2022-09-16T05:42:34.445Z,99.90
2022-09-16T05:43:38.549Z,99.90
2022-09-16T05:44:40.628Z,99.90
2022-09-16T05:45:43.726Z,99.90
2022-09-16T05:46:45.805Z,99.90
2022-09-16T05:47:49.113Z,99.90
2022-09-16T05:48:51.089Z,99.90
2022-09-16T05:49:54.854Z,99.90
2022-09-16T05:50:59.532Z,99.90
2022-09-16T05:52:02.863Z,99.90
2022-09-16T05:53:06.093Z,99.90
2022-09-16T05:54:08.409Z,99.90
2022-09-16T05:55:11.454Z,99.90
2022-09-16T05:56:16.610Z,99.90
2022-09-16T05:57:21.776Z,99.90
2022-09-16T05:58:24.519Z,99.90
2022-09-16T05:59:27.586Z,99.90
2022-09-16T06:00:29.725Z,99.90
2022-09-16T06:01:35.822Z,99.90
2022-09-16T06:02:38.317Z,99.90
2022-09-16T06:03:43.403Z,99.90
2022-09-16T06:04:45.539Z,99.90
2022-09-16T06:05:48.493Z,99.90
2022-09-16T06:06:50.626Z,99.90
2022-09-16T06:07:57.469Z,99.90
2022-09-16T06:09:01.363Z,99.90
2022-09-16T06:10:05.036Z,99.90
2022-09-16T06:11:09.521Z,99.90
2022-09-16T06:12:13.878Z,99.90
2022-09-16T06:13:16.052Z,99.90
2022-09-16T06:14:22.646Z,99.90
2022-09-16T06:15:24.780Z,99.90
2022-09-16T06:16:29.771Z,99.90
2022-09-16T06:17:31.761Z,99.90
2022-09-16T06:18:35.247Z,99.90
2022-09-16T06:19:37.228Z,99.90
2022-09-16T06:20:40.255Z,99.90
2022-09-16T06:21:45.095Z,99.90
2022-09-16T06:22:47.289Z,99.90
2022-09-16T06:23:50.672Z,99.90
2022-09-16T06:24:52.745Z,99.90
2022-09-16T06:26:01.250Z,99.90
2022-09-16T06:27:04.815Z,99.90
2022-09-16T06:28:09.631Z,99.90
2022-09-16T06:29:13.055Z,99.90
2022-09-16T06:30:15.289Z,99.90
2022-09-16T06:31:20.337Z,99.90
2022-09-16T06:32:22.531Z,99.90
2022-09-16T06:33:25.930Z,99.90
2022-09-16T06:34:28.974Z,99.90
2022-09-16T06:35:31.461Z,99.90
2022-09-16T06:36:38.599Z,99.90
2022-09-16T06:37:43.852Z,99.90
2022-09-16T06:38:47.933Z,99.90
2022-09-16T06:39:49.961Z,99.90
2022-09-16T06:40:52.954Z,99.90
2022-09-16T06:41:55.010Z,99.90
2022-09-16T06:43:06.609Z,99.90
2022-09-16T06:44:10.635Z,99.90
2022-09-16T06:45:13.715Z,99.90
2022-09-16T06:46:18.440Z,99.90
2022-09-16T06:47:21.416Z,99.90
2022-09-16T06:48:23.578Z,99.90
2022-09-16T06:49:26.690Z,99.90
2022-09-16T06:50:28.752Z,99.90
2022-09-16T06:51:32.610Z,99.90
2022-09-16T06:52:35.228Z,99.90
2022-09-16T06:53:38.376Z,99.90
2022-09-16T06:54:41.906Z,99.90
2022-09-16T06:55:43.965Z,99.90
2022-09-16T06:56:46.975Z,99.90
2022-09-16T06:57:49.288Z,99.90
2022-09-16T06:58:53.393Z,99.90
2022-09-16T06:59:57.602Z,99.90
2022-09-16T07:01:01.032Z,99.90
2022-09-16T07:02:04.257Z,99.90
2022-09-16T07:03:06.529Z,99.90
2022-09-16T07:04:13.363Z,99.90
2022-09-16T07:05:15.667Z,99.90
2022-09-16T07:06:20.175Z,99.90
2022-09-16T07:07:22.846Z,99.90
2022-09-16T07:08:29.586Z,99.90
2022-09-16T07:09:32.711Z,99.90
2022-09-16T07:10:35.829Z,99.90
2022-09-16T07:11:37.883Z,99.90
2022-09-16T07:12:40.878Z,99.90
2022-09-16T07:13:43.634Z,99.90
2022-09-16T07:14:47.256Z,99.90
2022-09-16T07:16:11.873Z,99.90
2022-09-16T07:17:13.616Z,99.90
2022-09-16T07:18:16.821Z,99.90
2022-09-16T07:19:20.242Z,99.90
2022-09-16T07:20:23.297Z,99.90
2022-09-16T07:21:29.870Z,99.90
2022-09-16T07:22:33.262Z,99.90
2022-09-16T07:23:38.069Z,99.90
2022-09-16T07:24:42.372Z,99.90
2022-09-16T07:25:44.636Z,99.90
2022-09-16T07:26:47.752Z,99.90
2022-09-16T07:27:50.017Z,99.90
2022-09-16T07:28:54.462Z,99.90
2022-09-16T07:30:00.322Z,99.90
2022-09-16T07:31:12.221Z,99.90
2022-09-16T07:32:15.657Z,99.90
2022-09-16T07:33:17.688Z,99.90
2022-09-16T07:34:21.515Z,99.90
2022-09-16T07:35:23.524Z,99.90
2022-09-16T07:36:29.157Z,99.90
2022-09-16T07:37:32.618Z,99.90
2022-09-16T07:38:35.121Z,99.90
2022-09-16T07:39:38.218Z,99.90
2022-09-16T07:40:41.703Z,99.90
2022-09-16T07:41:46.325Z,99.90
2022-09-16T07:42:48.388Z,99.90
2022-09-16T07:43:51.702Z,99.90
2022-09-16T07:44:55.831Z,99.90
2022-09-16T07:45:58.872Z,99.90
2022-09-16T07:47:03.828Z,99.90
2022-09-16T07:48:06.312Z,99.90
2022-09-16T07:49:12.134Z,99.90
2022-09-16T07:50:14.323Z,99.90
2022-09-16T07:51:19.224Z,99.90
2022-09-16T07:52:21.325Z,99.90
2022-09-16T07:53:26.363Z,99.90
2022-09-16T07:54:35.777Z,99.90
2022-09-16T07:55:41.973Z,99.90
2022-09-16T07:56:44.946Z,99.90
2022-09-16T07:57:47.929Z,99.90
2022-09-16T07:58:50.077Z,99.90
2022-09-16T07:59:53.448Z,99.90
2022-09-16T08:00:57.014Z,99.90
2022-09-16T08:02:04.251Z,99.90
2022-09-16T08:03:07.474Z,99.90
2022-09-16T08:04:10.705Z,99.90
2022-09-16T08:05:13.479Z,99.90
2022-09-16T08:06:18.387Z,99.90
2022-09-16T08:07:21.542Z,99.90
2022-09-16T08:08:23.554Z,99.90
2022-09-16T08:09:45.161Z,99.90
2022-09-16T08:10:55.648Z,99.90
2022-09-16T08:11:58.267Z,99.90
2022-09-16T08:13:01.699Z,99.90
2022-09-16T08:14:05.233Z,99.90
2022-09-16T08:15:08.920Z,99.90
2022-09-16T08:16:14.370Z,99.90
2022-09-16T08:17:17.901Z,99.90
2022-09-16T08:18:24.070Z,99.90
2022-09-16T08:19:26.290Z,99.90
2022-09-16T08:20:29.379Z,99.90
2022-09-16T08:21:32.744Z,99.90
2022-09-16T08:22:36.010Z,99.90
2022-09-16T08:23:38.988Z,99.90
2022-09-16T08:24:42.164Z,99.90
2022-09-16T08:25:44.211Z,99.90
2022-09-16T08:26:47.291Z,99.90
2022-09-16T08:27:52.802Z,99.90
2022-09-16T08:29:08.314Z,99.90
2022-09-16T08:30:13.066Z,99.90
2022-09-16T08:31:15.836Z,99.90
2022-09-16T08:32:20.222Z,99.90
2022-09-16T08:33:25.844Z,99.90
2022-09-16T08:34:28.957Z,99.90
2022-09-16T08:35:31.007Z,99.90
2022-09-16T08:36:34.572Z,99.90
2022-09-16T08:37:39.841Z,99.90
2022-09-16T08:38:43.950Z,99.90
2022-09-16T08:39:48.530Z,99.90
2022-09-16T08:40:53.592Z,99.90
2022-09-16T08:42:10.543Z,99.90
2022-09-16T08:43:21.527Z,99.90
2022-09-16T08:44:34.610Z,99.90
2022-09-16T08:45:46.564Z,99.90
2022-09-16T08:46:54.583Z,99.90
2022-09-16T08:48:14.135Z,99.90
2022-09-16T08:49:20.210Z,99.90
2022-09-16T08:50:27.620Z,99.90
2022-09-16T08:51:30.992Z,99.90
2022-09-16T08:52:35.537Z,99.90
2022-09-16T08:53:43.015Z,99.90
2022-09-16T08:54:48.112Z,99.90
2022-09-16T08:55:52.379Z,99.90
2022-09-16T08:56:57.897Z,99.90
2022-09-16T08:58:04.926Z,99.90
2022-09-16T08:59:16.615Z,99.90
2022-09-16T09:00:20.271Z,99.90
2022-09-16T09:01:30.201Z,99.90
2022-09-16T09:02:44.264Z,99.90
2022-09-16T09:03:49.249Z,99.90
2022-09-16T09:04:51.280Z,99.90
2022-09-16T09:05:56.567Z,99.90
2022-09-16T09:07:07.807Z,99.90
2022-09-16T09:08:21.741Z,99.90
2022-09-16T09:09:37.411Z,99.90
2022-09-16T09:10:46.110Z,99.90
2022-09-16T09:11:57.246Z,99.90
2022-09-16T09:13:08.204Z,99.90
2022-09-16T09:14:26.780Z,99.90
2022-09-16T09:15:39.423Z,99.90
2022-09-16T09:16:49.731Z,99.90
2022-09-16T09:18:05.872Z,99.90
2022-09-16T09:19:22.431Z,99.90
2022-09-16T09:20:34.461Z,99.90
2022-09-16T09:21:50.636Z,99.90
2022-09-16T09:23:08.259Z,99.90
2022-09-16T09:24:29.911Z,99.90
2022-09-16T09:25:39.833Z,99.90
2022-09-16T09:26:47.393Z,99.90
2022-09-16T09:27:59.393Z,99.90
2022-09-16T09:29:25.030Z,99.90
2022-09-16T09:30:28.717Z,99.90
2022-09-16T09:31:41.198Z,99.90
2022-09-16T09:32:59.323Z,99.90
2022-09-16T09:34:07.162Z,99.90
2022-09-16T09:35:24.939Z,99.90
2022-09-16T09:36:40.456Z,99.90
2022-09-16T09:38:06.769Z,99.90
2022-09-16T09:39:20.505Z,99.90
2022-09-16T09:40:33.461Z,99.90
2022-09-16T09:41:39.742Z,99.90
2022-09-16T09:42:48.224Z,99.90
2022-09-16T09:43:57.030Z,99.90
2022-09-16T09:45:03.982Z,99.90
2022-09-16T09:46:13.714Z,99.90
2022-09-16T09:47:20.736Z,99.90
2022-09-16T09:48:26.399Z,99.90
2022-09-16T09:49:33.893Z,99.30
2022-09-16T09:50:43.483Z,99.90
2022-09-16T09:51:51.832Z,99.90
2022-09-16T09:53:00.584Z,99.90
2022-09-16T09:54:13.726Z,99.80
2022-09-16T09:55:18.309Z,99.90
2022-09-16T09:56:27.406Z,99.90
2022-09-16T09:57:34.738Z,99.90
2022-09-16T09:58:41.218Z,99.20
2022-09-16T09:59:48.408Z,98.30
2022-09-16T10:00:53.252Z,98.00
2022-09-16T10:01:56.290Z,98.10
2022-09-16T10:03:05.968Z,98.50
2022-09-16T10:04:15.493Z,97.50
2022-09-16T10:05:22.671Z,98.20
2022-09-16T10:06:30.257Z,98.00
2022-09-16T10:07:32.602Z,97.40
2022-09-16T10:08:42.880Z,97.50
2022-09-16T10:09:49.645Z,97.80
2022-09-16T10:10:55.087Z,97.80
2022-09-16T10:11:57.196Z,98.50
2022-09-16T10:13:08.959Z,98.50
2022-09-16T10:14:24.583Z,98.30
2022-09-16T10:15:29.235Z,99.00
2022-09-16T10:16:35.205Z,97.80
2022-09-16T10:17:37.415Z,97.90
2022-09-16T10:18:41.067Z,97.60
2022-09-16T10:19:52.167Z,96.70
2022-09-16T10:21:07.764Z,95.80
2022-09-16T10:22:19.216Z,95.50
2022-09-16T10:23:29.766Z,96.30
2022-09-16T10:24:34.325Z,96.40
2022-09-16T10:25:38.328Z,96.10
2022-09-16T10:26:42.402Z,96.20
2022-09-16T10:27:58.237Z,96.10
2022-09-16T10:29:03.361Z,96.00
2022-09-16T10:30:10.520Z,96.30
2022-09-16T10:31:13.887Z,96.50
2022-09-16T10:32:18.386Z,95.70
2022-09-16T10:33:25.467Z,96.00
2022-09-16T10:34:33.519Z,95.70
2022-09-16T10:35:38.003Z,95.90
2022-09-16T10:36:41.386Z,96.30
2022-09-16T10:37:50.608Z,96.50
2022-09-16T10:39:02.249Z,96.50
2022-09-16T10:40:17.593Z,96.50
2022-09-16T10:41:23.651Z,97.10
2022-09-16T10:42:27.556Z,97.30
2022-09-16T10:43:32.167Z,97.10
2022-09-16T10:44:36.966Z,97.20
2022-09-16T10:45:47.859Z,97.40
2022-09-16T10:46:53.079Z,97.00
2022-09-16T10:48:02.102Z,96.70
2022-09-16T10:49:11.675Z,96.90
2022-09-16T10:50:18.921Z,96.60
2022-09-16T10:51:23.637Z,96.40
2022-09-16T10:52:28.828Z,96.50
2022-09-16T10:53:39.173Z,96.80
2022-09-16T10:54:43.699Z,96.30
2022-09-16T10:55:58.107Z,96.30
2022-09-16T10:57:00.125Z,96.40
2022-09-16T10:58:11.011Z,96.10
2022-09-16T10:59:14.135Z,96.30
2022-09-16T11:00:18.783Z,96.70
2022-09-16T11:01:33.905Z,96.50
2022-09-16T11:02:53.477Z,97.40
2022-09-16T11:04:12.292Z,97.30
2022-09-16T11:05:26.315Z,97.00
2022-09-16T11:06:39.965Z,96.90
2022-09-16T11:07:53.823Z,96.80
2022-09-16T11:09:06.036Z,96.90
2022-09-16T11:10:19.580Z,96.80
2022-09-16T11:11:41.373Z,96.60
2022-09-16T11:13:14.226Z,96.60
2022-09-16T11:14:26.268Z,96.70
2022-09-16T11:15:42.143Z,96.60
2022-09-16T11:16:58.266Z,97.10
2022-09-16T11:18:18.498Z,96.90
2022-09-16T11:19:28.997Z,96.80
2022-09-16T11:20:45.618Z,96.50
2022-09-16T11:22:04.487Z,96.50
2022-09-16T11:23:14.453Z,96.00
2022-09-16T11:24:31.768Z,95.90
2022-09-16T11:25:44.755Z,95.90
2022-09-16T11:26:57.509Z,96.00
2022-09-16T11:28:14.357Z,95.50
2022-09-16T11:29:38.418Z,95.50
2022-09-16T11:30:50.094Z,95.80
2022-09-16T11:31:59.832Z,96.50
2022-09-16T11:34:29.037Z,96.00
2022-09-16T11:35:42.140Z,95.70
2022-09-16T11:36:55.297Z,96.00
2022-09-16T11:38:03.989Z,96.00
2022-09-16T11:39:21.389Z,95.60
2022-09-16T11:40:32.686Z,95.50
2022-09-16T11:41:42.503Z,95.50
2022-09-16T11:43:23.763Z,95.80
2022-09-16T11:44:38.817Z,95.70
2022-09-16T11:45:49.711Z,95.60
2022-09-16T11:47:02.693Z,94.90
2022-09-16T11:48:27.415Z,94.90
2022-09-16T11:49:54.802Z,94.80
2022-09-16T11:51:07.086Z,95.00
2022-09-16T11:52:25.881Z,94.50
2022-09-16T11:53:46.249Z,94.00
2022-09-16T11:55:06.745Z,93.40
2022-09-16T11:56:16.404Z,93.40
2022-09-16T11:57:22.837Z,94.00
2022-09-16T11:58:35.378Z,93.60
2022-09-16T11:59:42.808Z,93.80
2022-09-16T12:00:48.163Z,93.30
2022-09-16T12:01:55.069Z,93.40
2022-09-16T12:03:03.011Z,93.60
2022-09-16T12:04:09.715Z,93.30
2022-09-16T12:05:19.608Z,93.70
2022-09-16T12:06:26.108Z,93.70
2022-09-16T12:07:35.783Z,94.10
2022-09-16T12:08:52.982Z,94.10
2022-09-16T12:10:01.107Z,93.90
2022-09-16T12:11:11.688Z,93.20
2022-09-16T12:12:19.471Z,92.50
2022-09-16T12:13:25.839Z,92.50
2022-09-16T12:14:34.918Z,92.60
2022-09-16T12:15:43.768Z,92.10
2022-09-16T12:16:50.550Z,92.20
2022-09-16T12:17:56.198Z,91.70
2022-09-16T12:19:04.614Z,91.60
2022-09-16T12:20:15.640Z,91.80
2022-09-16T12:21:25.538Z,91.80
2022-09-16T12:22:32.110Z,91.80
2022-09-16T12:23:41.757Z,92.20
2022-09-16T12:24:49.183Z,92.30
2022-09-16T12:26:05.728Z,92.10
2022-09-16T12:27:16.036Z,92.10
2022-09-16T12:28:26.168Z,92.40
2022-09-16T12:29:38.020Z,92.50
2022-09-16T12:30:43.690Z,92.50
2022-09-16T12:31:51.848Z,92.50
2022-09-16T12:33:00.472Z,92.70
2022-09-16T12:34:07.134Z,92.80
2022-09-16T12:35:15.151Z,92.80
2022-09-16T12:36:23.961Z,92.90
2022-09-16T12:37:35.383Z,93.00
2022-09-16T12:38:41.167Z,93.30
2022-09-16T12:39:43.406Z,93.20
2022-09-16T12:41:01.237Z,93.10
2022-09-16T12:42:29.405Z,93.30
2022-09-16T12:44:23.554Z,93.50
2022-09-16T12:45:57.920Z,93.60
2022-09-16T12:47:29.940Z,93.40
2022-09-16T12:49:07.646Z,93.80
2022-09-16T12:50:37.255Z,93.50
2022-09-16T12:52:09.685Z,93.60
2022-09-16T12:53:49.358Z,93.20
2022-09-16T12:55:25.729Z,92.60
2022-09-16T12:56:44.295Z,92.60
2022-09-16T12:58:03.354Z,92.50
2022-09-16T12:59:36.994Z,92.50
2022-09-16T13:00:44.913Z,92.60
2022-09-16T13:01:51.581Z,92.40
2022-09-16T13:02:57.600Z,92.30
2022-09-16T13:04:05.376Z,92.10
2022-09-16T13:05:17.045Z,91.80
2022-09-16T13:06:26.643Z,91.90
2022-09-16T13:07:33.272Z,91.70
2022-09-16T13:08:37.344Z,90.70
2022-09-16T13:09:40.947Z,91.20
2022-09-16T13:10:57.744Z,91.30
2022-09-16T13:12:36.785Z,91.20
2022-09-16T13:13:36.139Z,91.00
2022-09-16T13:14:45.809Z,91.80
2022-09-16T13:15:58.227Z,92.20
2022-09-16T13:17:03.262Z,93.70
2022-09-16T13:18:10.250Z,95.20
2022-09-16T13:19:44.402Z,96.30
2022-09-16T13:20:51.664Z,98.10
2022-09-16T13:21:58.066Z,98.10
2022-09-16T13:23:07.465Z,98.70
2022-09-16T13:24:16.248Z,99.20
2022-09-16T13:25:25.951Z,99.60
2022-09-16T13:26:39.046Z,99.90
2022-09-16T13:27:53.963Z,99.90
2022-09-16T13:28:58.886Z,99.80
2022-09-16T13:30:26.873Z,99.90
2022-09-16T13:31:34.246Z,99.60
2022-09-16T13:32:43.562Z,99.80
2022-09-16T13:33:49.509Z,98.40
2022-09-16T13:35:01.987Z,98.30
2022-09-16T13:36:16.646Z,98.10
2022-09-16T13:37:26.545Z,97.10
2022-09-16T13:38:40.395Z,96.70
2022-09-16T13:39:46.167Z,97.20
2022-09-16T13:41:00.034Z,97.30
2022-09-16T13:42:11.652Z,97.00
2022-09-16T13:43:14.481Z,95.80
2022-09-16T13:44:40.816Z,96.40
2022-09-16T13:45:45.140Z,94.80
2022-09-16T13:46:48.259Z,95.00
2022-09-16T13:47:50.977Z,94.80
2022-09-16T13:48:58.526Z,95.30
2022-09-16T13:50:11.378Z,95.20
2022-09-16T13:51:20.140Z,94.10
2022-09-16T13:52:28.297Z,93.60
2022-09-16T13:53:32.373Z,93.00
2022-09-16T13:55:08.967Z,92.50
2022-09-16T13:56:18.453Z,92.40
2022-09-16T13:57:49.239Z,92.50
2022-09-16T13:59:01.528Z,92.80
2022-09-16T14:00:19.071Z,92.70
2022-09-16T14:01:55.593Z,92.70
2022-09-16T14:03:32.728Z,92.40
2022-09-16T14:04:54.461Z,92.60
2022-09-16T14:06:45.176Z,92.60
2022-09-16T14:07:54.633Z,92.30
2022-09-16T14:09:03.241Z,92.00
2022-09-16T14:10:12.590Z,91.80
2022-09-16T14:11:21.308Z,91.40
2022-09-16T14:12:30.748Z,91.40
2022-09-16T14:13:39.630Z,91.70
2022-09-16T14:14:47.309Z,92.00
2022-09-16T14:15:53.240Z,91.80
2022-09-16T14:16:56.814Z,91.60
2022-09-16T14:18:04.053Z,91.40
2022-09-16T14:19:13.742Z,91.10
2022-09-16T14:20:21.493Z,91.10
2022-09-16T14:21:25.884Z,91.20
2022-09-16T14:22:29.020Z,91.10
2022-09-16T14:23:33.894Z,91.20
2022-09-16T14:24:38.321Z,91.60
2022-09-16T14:25:41.441Z,91.80
2022-09-16T14:26:53.403Z,91.70
2022-09-16T14:28:16.250Z,91.80
2022-09-16T14:29:18.286Z,91.60
2022-09-16T14:30:22.065Z,91.10
2022-09-16T14:31:30.921Z,90.10
2022-09-16T14:32:38.457Z,90.20
2022-09-16T14:33:44.410Z,90.00
2022-09-16T14:34:47.641Z,88.70
2022-09-16T14:35:51.228Z,89.70
2022-09-16T14:36:55.011Z,89.40